Time;durP1;ratioP1;P1;durP2;ratioP2;P2;SDS_P1;SDS_P2;PMS_P1;PMS_P2;Temp;Humidity;BMP_temperature;BMP_pressure;BME280_temperature;BME280_humidity;BME280_pressure;Samples;Min_cycle;Max_cycle;Signal;HPM_P1;HPM_P2
2022/04/20 00:06:04;;;;;;;14.10;10.70;;;;;;;4.07;60.02;99279.79;447693;1267;142572;-63
2022/04/20 00:16:10;;;;;;;14.20;11.20;;;;;;;4.11;60.14;99277.20;442204;1267;141946;-61
2022/04/20 00:26:16;;;;;;;13.10;9.50;;;;;;;4.12;60.51;99278.02;448036;1266;141630;-61
2022/04/20 00:36:23;;;;;;;12.10;8.70;;;;;;;4.13;60.79;99271.37;444519;1266;141602;-61
2022/04/20 00:46:29;;;;;;;13.80;10.20;;;;;;;4.16;60.76;99268.14;447285;1267;142527;-61
2022/04/20 00:56:35;;;;;;;13.50;10.60;;;;;;;4.19;61.16;99266.97;444386;1268;146253;-62
2022/04/20 01:06:41;;;;;;;16.00;11.30;;;;;;;4.17;61.39;99262.20;448045;1268;141692;-61
2022/04/20 01:16:47;;;;;;;13.80;10.80;;;;;;;4.12;61.09;99252.70;448031;1268;153468;-61
2022/04/20 01:26:53;;;;;;;14.30;9.90;;;;;;;4.08;61.43;99241.95;445679;1268;142580;-62
2022/04/20 01:36:58;;;;;;;13.10;10.70;;;;;;;4.05;61.45;99237.06;447268;1268;141812;-61
2022/04/20 01:47:05;;;;;;;13.70;9.90;;;;;;;4.05;61.79;99219.91;448024;1267;142682;-61
2022/04/20 01:57:11;;;;;;;10.50;9.20;;;;;;;4.02;62.17;99203.73;443515;1268;141947;-61
2022/04/20 02:07:17;;;;;;;13.60;10.70;;;;;;;3.93;62.78;99185.77;436432;1268;142097;-61
2022/04/20 02:17:23;;;;;;;12.60;9.60;;;;;;;3.89;63.11;99182.83;448031;1267;142769;-61
2022/04/20 02:27:29;;;;;;;12.50;9.10;;;;;;;3.87;63.68;99181.00;448127;1267;143000;-62
2022/04/20 02:37:36;;;;;;;13.00;9.10;;;;;;;3.92;64.07;99168.33;447271;1268;143461;-62
2022/04/20 02:47:41;;;;;;;14.00;10.30;;;;;;;3.87;65.20;99159.03;447660;1269;142156;-62
2022/04/20 02:57:47;;;;;;;9.60;8.60;;;;;;;3.73;66.87;99147.70;447272;1267;143104;-62
2022/04/20 03:07:53;;;;;;;9.90;7.60;;;;;;;3.78;67.77;99145.56;448038;1267;141039;-62
2022/04/20 03:17:59;;;;;;;8.90;7.80;;;;;;;3.82;68.50;99141.95;448095;1267;141832;-62
2022/04/20 03:28:05;;;;;;;11.10;8.70;;;;;;;3.86;69.24;99133.44;444601;1267;143123;-61
2022/04/20 03:38:11;;;;;;;9.50;8.50;;;;;;;3.88;69.46;99122.45;448064;1267;142793;-62
2022/04/20 03:48:17;;;;;;;10.90;9.40;;;;;;;3.91;70.20;99111.60;447810;1268;143294;-61
2022/04/20 03:58:23;;;;;;;11.50;9.20;;;;;;;3.96;70.72;99108.95;445764;1267;141815;-61
2022/04/20 04:08:29;;;;;;;10.90;9.70;;;;;;;3.99;70.93;99102.08;440403;1267;141999;-62
2022/04/20 04:18:35;;;;;;;13.30;11.10;;;;;;;4.01;71.45;99102.99;447914;1267;141144;-62
2022/04/20 04:28:41;;;;;;;16.60;11.70;;;;;;;4.03;71.98;99102.39;447271;1267;142992;-61
2022/04/20 04:38:47;;;;;;;16.40;13.90;;;;;;;4.05;72.05;99101.60;438760;1266;142562;-61
2022/04/20 04:48:52;;;;;;;14.40;12.00;;;;;;;4.06;72.78;99097.59;447244;1267;142886;-62
2022/04/20 04:58:59;;;;;;;13.80;11.60;;;;;;;4.04;73.44;99091.11;447948;1267;144355;-62
2022/04/20 05:09:05;;;;;;;13.40;11.50;;;;;;;3.98;73.97;99084.63;447940;1266;142043;-62
2022/04/20 05:19:10;;;;;;;10.80;9.70;;;;;;;4.01;74.54;99069.08;444907;1268;142628;-63
2022/04/20 05:29:18;;;;;;;9.50;8.40;;;;;;;4.06;74.74;99063.11;448037;1267;142611;-62
2022/04/20 05:49:47;;;;;;;7.90;6.40;;;;;;;4.17;75.36;99049.64;448042;1267;142117;-61
2022/04/20 05:59:53;;;;;;;7.00;6.30;;;;;;;4.21;75.49;99042.86;447955;1266;142735;-61
2022/04/20 06:09:59;;;;;;;6.20;5.60;;;;;;;4.34;75.60;99041.41;447282;1267;142974;-61
2022/04/20 06:20:06;;;;;;;4.10;3.70;;;;;;;4.40;75.67;99033.14;445912;1267;144105;-62
2022/04/20 06:30:13;;;;;;;2.30;2.10;;;;;;;4.34;74.81;99030.84;447331;1267;141946;-61
2022/04/20 06:40:19;;;;;;;4.10;3.70;;;;;;;4.30;74.30;99027.88;447314;1266;142562;-61
2022/04/20 06:50:24;;;;;;;3.60;3.00;;;;;;;4.37;74.74;99025.50;441663;1267;141749;-62
2022/04/20 07:00:32;;;;;;;3.50;1.90;;;;;;;4.33;73.97;99019.27;441023;1268;141380;-66
2022/04/20 07:10:38;;;;;;;2.50;2.30;;;;;;;4.25;74.21;99018.42;444970;1267;141840;-63
2022/04/20 07:20:44;;;;;;;11.60;3.90;;;;;;;4.27;74.31;99019.90;448117;1267;141232;-62
2022/04/20 07:30:50;;;;;;;1.90;1.70;;;;;;;4.27;74.19;99018.86;447371;1267;145426;-58
2022/04/20 07:40:56;;;;;;;1.90;1.70;;;;;;;4.31;74.21;99015.52;448039;1267;142145;-59
2022/04/20 07:51:02;;;;;;;2.40;2.20;;;;;;;4.49;74.19;99006.02;443981;1265;142874;-59
2022/04/20 08:01:08;;;;;;;2.40;1.80;;;;;;;4.72;74.05;98995.35;433466;1267;146676;-57
2022/04/20 08:11:14;;;;;;;1.50;1.30;;;;;;;4.48;74.00;98988.95;444124;1265;141605;-54
2022/04/20 08:21:20;;;;;;;0.90;0.80;;;;;;;4.22;73.60;98987.02;448129;1267;141944;-58
2022/04/20 08:31:26;;;;;;;1.10;1.00;;;;;;;4.11;73.82;98979.74;446919;1267;141809;-55
2022/04/20 08:41:34;;;;;;;1.00;1.00;;;;;;;4.30;73.87;98982.99;444525;1267;142295;-49
2022/04/20 09:02:06;;;;;;;1.20;1.10;;;;;;;5.02;73.07;98963.38;448070;1267;141533;-58
2022/04/20 09:12:15;;;;;;;0.80;0.70;;;;;;;5.60;72.24;98971.48;440381;1267;142293;-57
2022/04/20 09:22:23;;;;;;;1.10;1.00;;;;;;;5.90;71.78;98953.05;446295;1269;142742;-60
2022/04/20 09:32:37;;;;;;;1.60;1.30;;;;;;;6.41;71.18;98937.71;447577;1267;143296;-61
2022/04/20 09:43:01;;;;;;;1.30;1.20;;;;;;;6.58;70.35;98938.65;447394;1267;142141;-64
2022/04/20 09:53:12;;;;;;;1.50;1.10;;;;;;;6.46;70.23;98951.17;436716;1268;142292;-61
2022/04/20 10:03:26;;;;;;;1.70;1.10;;;;;;;6.31;70.42;98960.67;438968;1267;141150;-61
2022/04/20 10:13:32;;;;;;;2.90;1.70;;;;;;;6.39;70.22;98960.42;447333;1266;142813;-61
2022/04/20 10:23:43;;;;;;;1.60;1.40;;;;;;;6.13;70.53;98969.17;444476;1267;144323;-64
2022/04/20 10:33:49;;;;;;;1.50;1.40;;;;;;;6.23;70.90;98967.40;447358;1267;141828;-63
2022/04/20 10:44:06;;;;;;;2.00;1.20;;;;;;;6.60;70.84;98945.88;432436;1267;141374;-61
2022/04/20 10:54:29;;;;;;;2.50;1.70;;;;;;;6.94;70.07;98948.42;448113;1266;142250;-60
2022/04/20 11:04:39;;;;;;;2.80;2.00;;;;;;;7.18;69.78;98952.73;441630;1268;141443;-62
2022/04/20 11:25:10;;;;;;;2.90;1.90;;;;;;;6.66;69.59;98962.55;441057;1267;146554;-59
2022/04/20 11:35:16;;;;;;;2.30;1.60;;;;;;;6.46;70.06;98962.30;448130;1267;144667;-58
2022/04/20 11:45:33;;;;;;;3.00;2.30;;;;;;;6.20;70.50;98962.02;447460;1267;141241;-61
2022/04/20 11:55:48;;;;;;;2.10;1.60;;;;;;;6.08;71.22;98965.13;447171;1267;190897;-58
2022/04/20 12:06:03;;;;;;;3.10;2.20;;;;;;;6.05;71.38;98963.87;448103;1266;141202;-59
2022/04/20 12:16:11;;;;;;;2.40;2.20;;;;;;;6.06;71.78;98960.20;447275;1267;141480;-59
2022/04/20 12:26:26;;;;;;;3.50;2.80;;;;;;;6.13;72.02;98956.14;448027;1266;141641;-59
2022/04/20 12:36:32;;;;;;;2.50;2.30;;;;;;;6.03;72.01;98958.92;448048;1266;145361;-59
2022/04/20 12:46:38;;;;;;;2.40;2.10;;;;;;;5.92;72.19;98965.23;440945;1267;193269;-58
2022/04/20 13:07:19;;;;;;;3.80;2.60;;;;;;;5.89;72.62;98973.40;447152;1268;141729;-59
2022/04/20 13:17:25;;;;;;;2.60;2.40;;;;;;;5.80;73.42;98975.11;440507;1267;141835;-58
2022/04/20 13:37:54;;;;;;;3.90;3.00;;;;;;;5.61;73.78;98978.89;446609;1268;141740;-58
2022/04/20 13:48:01;;;;;;;4.50;3.80;;;;;;;5.72;74.34;98976.58;445291;1267;142313;-60
2022/04/20 13:58:07;;;;;;;5.40;4.40;;;;;;;5.75;74.39;98982.67;446985;1269;142198;-59
2022/04/20 14:08:13;;;;;;;6.00;5.40;;;;;;;5.77;74.80;98985.19;446804;1268;141622;-60
2022/04/20 14:18:19;;;;;;;7.10;5.80;;;;;;;5.81;75.07;98993.11;448042;1268;142112;-60
2022/04/20 14:38:48;;;;;;;11.60;10.60;;;;;;;5.70;75.25;99006.18;440908;1266;142354;-58
2022/04/20 14:48:54;;;;;;;10.50;9.50;;;;;;;5.68;75.55;99004.91;446929;1267;145111;-57
2022/04/20 14:59:00;;;;;;;9.90;8.90;;;;;;;5.47;75.96;99003.91;438740;1269;142250;-59
2022/04/20 15:09:08;;;;;;;10.10;9.20;;;;;;;5.32;76.45;99021.70;444218;1268;141116;-57
2022/04/20 15:19:32;;;;;;;10.00;9.10;;;;;;;5.33;76.79;99028.05;431542;1271;141516;-57
2022/04/20 15:29:38;;;;;;;12.00;10.80;;;;;;;5.41;76.99;99045.02;439861;1268;141937;-57
2022/04/20 15:39:48;;;;;;;10.60;9.70;;;;;;;5.37;77.18;99035.20;438118;1268;145829;-58
2022/04/20 15:50:02;;;;;;;11.90;10.40;;;;;;;5.41;77.30;99030.41;440299;1268;145310;-57
2022/04/20 16:00:17;;;;;;;32.60;24.70;;;;;;;5.58;77.50;99034.12;448004;1268;143609;-58
2022/04/20 16:10:24;;;;;;;17.90;13.80;;;;;;;5.62;77.55;99046.40;440514;1268;142273;-58
2022/04/20 16:20:29;;;;;;;25.80;16.10;;;;;;;5.62;77.78;99052.98;447955;1268;142831;-58
2022/04/20 16:30:37;;;;;;;37.80;23.10;;;;;;;5.74;77.66;99053.25;448037;1267;142680;-60
2022/04/20 16:40:44;;;;;;;24.80;17.60;;;;;;;5.80;77.81;99048.05;444007;1267;141671;-58
2022/04/20 16:50:50;;;;;;;33.80;24.10;;;;;;;5.87;77.83;99037.27;444025;1268;141903;-61
2022/04/20 17:00:56;;;;;;;20.00;17.80;;;;;;;5.81;77.86;99042.13;447285;1267;141801;-60
2022/04/20 17:11:02;;;;;;;29.20;21.20;;;;;;;5.75;77.84;99051.77;448090;1267;142120;-61
2022/04/20 17:31:33;;;;;;;18.60;15.60;;;;;;;5.77;78.05;99069.60;447266;1267;143674;-62
2022/04/20 17:41:40;;;;;;;25.10;20.10;;;;;;;5.79;78.04;99064.12;447994;1267;142735;-62
2022/04/20 17:51:47;;;;;;;23.00;20.50;;;;;;;5.76;78.21;99070.34;447164;1268;143706;-59
2022/04/20 18:01:52;;;;;;;24.60;20.10;;;;;;;5.73;78.31;99060.59;448067;1267;142521;-61
2022/04/20 18:11:59;;;;;;;31.40;25.90;;;;;;;5.73;78.42;99061.10;447965;1267;141391;-59
2022/04/20 18:22:05;;;;;;;25.90;21.90;;;;;;;5.66;78.69;99059.20;447229;1266;142219;-58
2022/04/20 18:32:12;;;;;;;26.00;23.10;;;;;;;5.61;78.74;99056.84;448032;1268;142286;-61
2022/04/20 18:42:17;;;;;;;27.10;22.30;;;;;;;5.59;78.79;99056.45;448082;1267;142419;-62
2022/04/20 18:52:23;;;;;;;27.80;23.40;;;;;;;5.56;79.04;99057.61;447318;1267;142227;-60
2022/04/20 19:02:29;;;;;;;26.50;21.20;;;;;;;5.50;79.23;99063.86;447990;1267;142149;-63
2022/04/20 19:12:37;;;;;;;24.40;21.00;;;;;;;5.56;79.52;99076.21;447850;1268;145764;-59
2022/04/20 19:22:44;;;;;;;26.70;23.90;;;;;;;5.61;79.65;99077.86;439635;1267;141847;-62
2022/04/20 19:32:51;;;;;;;29.50;25.50;;;;;;;5.63;79.47;99068.24;448037;1267;141422;-60
2022/04/20 19:42:56;;;;;;;30.50;25.60;;;;;;;5.63;79.57;99061.13;443784;1267;142773;-61
2022/04/20 19:53:02;;;;;;;28.00;24.60;;;;;;;5.64;79.59;99059.99;447711;1266;142995;-61
2022/04/20 20:03:08;;;;;;;29.40;24.40;;;;;;;5.62;79.86;99059.73;448072;1266;142499;-61
2022/04/20 20:13:15;;;;;;;31.80;24.00;;;;;;;5.62;80.03;99065.66;447260;1265;143616;-61
2022/04/20 20:33:44;;;;;;;42.30;30.80;;;;;;;5.72;80.00;99080.07;443972;1267;163519;-62
2022/04/20 20:43:52;;;;;;;31.40;27.60;;;;;;;5.75;80.21;99081.11;447511;1267;143121;-59
2022/04/20 20:53:58;;;;;;;34.10;27.10;;;;;;;5.81;80.09;99082.95;445816;1269;142271;-58
2022/04/20 21:04:04;;;;;;;37.00;29.30;;;;;;;5.84;80.06;99095.29;441440;1267;142240;-61
2022/04/20 21:14:10;;;;;;;34.30;29.40;;;;;;;5.88;79.95;99089.48;447913;1267;142208;-61
2022/04/20 21:24:16;;;;;;;37.60;32.00;;;;;;;5.94;80.00;99080.54;440214;1267;142148;-61
2022/04/20 21:34:21;;;;;;;35.80;30.00;;;;;;;5.93;80.06;99079.69;447288;1265;142469;-61
2022/04/20 21:44:28;;;;;;;36.90;31.40;;;;;;;5.92;80.45;99074.16;447732;1269;182342;-60
2022/04/20 21:54:35;;;;;;;33.30;29.60;;;;;;;5.91;80.32;99074.56;448041;1267;141802;-63
2022/04/20 22:15:06;;;;;;;33.80;29.90;;;;;;;5.77;80.86;99076.52;448040;1267;143001;-58
2022/04/20 22:25:14;;;;;;;33.80;27.60;;;;;;;5.83;81.29;99071.16;447253;1267;142100;-63
2022/04/20 22:35:20;;;;;;;35.70;30.70;;;;;;;5.90;81.17;99079.85;448018;1265;141932;-62
2022/04/20 22:45:26;;;;;;;34.00;28.80;;;;;;;5.88;81.21;99068.30;447995;1267;142603;-61
2022/04/20 22:55:31;;;;;;;31.50;28.10;;;;;;;5.89;81.22;99056.78;447111;1268;142492;-62
2022/04/20 23:05:38;;;;;;;32.00;26.60;;;;;;;5.91;81.36;99069.40;447871;1268;143464;-66
2022/04/20 23:15:44;;;;;;;31.30;27.70;;;;;;;5.94;81.66;99071.65;447215;1267;143963;-63
2022/04/20 23:36:13;;;;;;;30.90;26.20;;;;;;;5.95;81.48;99066.88;447906;1267;143145;-63
2022/04/20 23:46:19;;;;;;;34.20;27.70;;;;;;;5.94;81.74;99064.16;446961;1267;142711;-63
2022/04/20 23:56:26;;;;;;;33.10;27.70;;;;;;;5.88;81.76;99062.73;447840;1267;178944;-63
